Time;durP1;ratioP1;P1;durP2;ratioP2;P2;SDS_P1;SDS_P2;PMS_P1;PMS_P2;Temp;Humidity;BMP_temperature;BMP_pressure;BME280_temperature;BME280_humidity;BME280_pressure;Samples;Min_cycle;Max_cycle;Signal;HPM_P1;HPM_P2
2021/03/10 00:00:00;;;;;;;;;;;;;;;21.38;31.81;101413.16;3109693;28;115098;-60
2021/03/10 00:01:34;;;;;;;;;;;;;;;21.40;31.55;101410.00;3106457;28;114461;-59
2021/03/10 00:03:06;;;;;;;;;;;;;;;21.41;31.82;101408.88;3109505;28;114810;-59
2021/03/10 00:04:38;;;;;;;;;;;;;;;21.41;31.66;101411.69;3091174;28;115874;-59
2021/03/10 00:06:09;;;;;;;;;;;;;;;21.42;31.80;101414.19;3106658;28;114569;-59
2021/03/10 00:07:41;;;;;;;;;;;;;;;21.43;31.63;101410.25;3110208;28;115755;-59
2021/03/10 00:09:12;;;;;;;;;;;;;;;21.42;31.89;101408.59;3109311;27;116500;-58
2021/03/10 00:10:45;;;;;;;;;;;;;;;21.44;31.67;101406.28;3107269;28;115880;-59
2021/03/10 00:12:17;;;;;;;;;;;;;;;21.43;32.03;101413.06;3109887;28;114645;-59
2021/03/10 00:13:49;;;;;;;;;;;;;;;21.44;31.73;101417.53;3110256;28;116141;-59
2021/03/10 00:15:21;;;;;;;;;;;;;;;21.45;31.96;101407.13;3111193;27;115027;-59
2021/03/10 00:16:53;;;;;;;;;;;;;;;21.44;31.83;101397.03;3110649;27;114929;-59
2021/03/10 00:18:26;;;;;;;;;;;;;;;21.45;31.72;101401.50;3108550;28;115276;-59
2021/03/10 00:19:57;;;;;;;;;;;;;;;21.44;31.94;101395.03;3107464;28;116758;-59
2021/03/10 00:21:29;;;;;;;;;;;;;;;21.45;31.61;101402.34;3114219;27;115884;-60
2021/03/10 00:23:00;;;;;;;;;;;;;;;21.44;31.74;101392.22;3109232;28;113779;-59
2021/03/10 00:24:31;;;;;;;;;;;;;;;21.43;31.72;101401.81;3107860;28;113815;-59
2021/03/10 00:26:04;;;;;;;;;;;;;;;21.44;31.88;101397.84;3108855;28;114113;-60
2021/03/10 00:27:37;;;;;;;;;;;;;;;21.49;32.22;101399.75;3107639;28;113832;-59
2021/03/10 00:29:09;;;;;;;;;;;;;;;21.46;32.30;101404.03;3108560;28;113914;-59
2021/03/10 00:30:40;;;;;;;;;;;;;;;21.46;32.69;101400.38;3111534;27;113757;-60
2021/03/10 00:32:11;;;;;;;;;;;;;;;21.45;32.97;101402.34;3106803;28;113748;-59
2021/03/10 00:33:43;;;;;;;;;;;;;;;21.45;33.32;101395.88;3109238;28;113864;-59
2021/03/10 00:35:14;;;;;;;;;;;;;;;21.45;33.20;101395.88;3111327;27;113742;-59
2021/03/10 00:36:46;;;;;;;;;;;;;;;21.43;33.24;101396.22;3110406;27;114208;-59
2021/03/10 00:38:17;;;;;;;;;;;;;;;21.44;33.29;101394.22;3111014;27;113654;-59
2021/03/10 00:39:48;;;;;;;;;;;;;;;21.43;33.24;101396.22;3111147;28;114144;-60
2021/03/10 00:41:20;;;;;;;;;;;;;;;21.43;32.47;101390.59;3110763;28;113701;-60
2021/03/10 00:42:52;;;;;;;;;;;;;;;21.43;33.34;101390.59;3119686;27;114252;-60
2021/03/10 00:44:24;;;;;;;;;;;;;;;21.43;33.11;101392.56;3124625;27;113661;-60
2021/03/10 00:45:55;;;;;;;;;;;;;;;21.41;32.96;101398.47;3124621;27;115187;-59
2021/03/10 00:47:27;;;;;;;;;;;;;;;21.41;33.09;101387.22;3119598;27;115219;-59
2021/03/10 00:48:59;;;;;;;;;;;;;;;21.42;32.69;101390.88;3109994;28;114146;-60
2021/03/10 00:50:30;;;;;;;;;;;;;;;21.39;32.66;101372.66;3105270;28;115178;-60
2021/03/10 00:52:02;;;;;;;;;;;;;;;21.41;32.19;101377.94;3119541;27;115292;-59
2021/03/10 00:53:33;;;;;;;;;;;;;;;21.38;33.04;101370.97;3110855;28;115197;-60
2021/03/10 00:55:05;;;;;;;;;;;;;;;21.38;33.06;101379.41;3118515;27;115221;-60
2021/03/10 00:56:38;;;;;;;;;;;;;;;21.37;32.64;101366.50;3123419;27;115151;-59
2021/03/10 00:58:10;;;;;;;;;;;;;;;21.35;33.39;101371.56;3121906;27;115262;-60
2021/03/10 00:59:42;;;;;;;;;;;;;;;21.36;33.20;101373.25;3122858;27;114265;-59
2021/03/10 01:01:15;;;;;;;;;;;;;;;21.36;33.29;101370.44;3091681;28;114750;-59
2021/03/10 01:02:46;;;;;;;;;;;;;;;21.35;32.85;101365.94;3110876;27;113917;-59
2021/03/10 01:04:18;;;;;;;;;;;;;;;21.34;33.30;101369.91;3127786;27;115211;-60
2021/03/10 01:05:50;;;;;;;;;;;;;;;21.33;33.04;101359.81;3108590;28;115937;-59
2021/03/10 01:07:21;;;;;;;;;;;;;;;21.33;33.17;101358.97;3118779;27;116066;-60
2021/03/10 01:08:52;;;;;;;;;;;;;;;21.32;32.87;101355.31;3121047;27;116295;-60
2021/03/10 01:10:24;;;;;;;;;;;;;;;21.29;33.08;101359.59;3123890;27;115924;-60
2021/03/10 01:11:55;;;;;;;;;;;;;;;21.29;33.21;101364.38;3123411;27;114651;-59
2021/03/10 01:13:27;;;;;;;;;;;;;;;21.27;33.00;101361.84;3122426;27;115834;-60
2021/03/10 01:14:58;;;;;;;;;;;;;;;21.28;33.10;101359.88;3123373;27;115688;-60
2021/03/10 01:16:30;;;;;;;;;;;;;;;21.25;33.42;101357.69;3109623;28;115960;-60
2021/03/10 01:18:02;;;;;;;;;;;;;;;21.23;33.45;101357.13;3118750;27;115890;-59
2021/03/10 01:19:34;;;;;;;;;;;;;;;21.22;33.56;101361.91;3119406;27;115899;-60
2021/03/10 01:21:06;;;;;;;;;;;;;;;21.21;33.47;101357.44;3122990;27;114422;-60
2021/03/10 01:22:40;;;;;;;;;;;;;;;21.21;33.57;101359.44;3123035;27;116241;-60
2021/03/10 01:24:12;;;;;;;;;;;;;;;21.19;33.63;101359.72;3123653;27;115709;-60
2021/03/10 01:25:44;;;;;;;;;;;;;;;21.19;33.60;101361.69;3110302;28;116228;-59
2021/03/10 01:27:17;;;;;;;;;;;;;;;21.18;33.53;101365.63;3120703;27;114688;-60
2021/03/10 01:28:49;;;;;;;;;;;;;;;21.16;33.56;101353.88;3121465;27;113855;-59
2021/03/10 01:30:21;;;;;;;;;;;;;;;21.16;33.49;101359.50;3108612;28;114264;-60
2021/03/10 01:31:52;;;;;;;;;;;;;;;21.15;33.48;101357.81;3116784;27;113716;-59
2021/03/10 01:33:24;;;;;;;;;;;;;;;21.13;33.57;101355.31;3123042;27;113903;-59
2021/03/10 01:35:13;;;;;;;;;;;;;;;21.13;33.86;101351.66;3122303;27;113974;-59
2021/03/10 01:36:45;;;;;;;;;;;;;;;21.12;33.90;101349.97;3122739;27;114141;-59
2021/03/10 01:38:16;;;;;;;;;;;;;;;21.11;33.85;101345.50;3123362;27;113906;-60
2021/03/10 01:39:48;;;;;;;;;;;;;;;21.10;33.98;101344.66;3109864;28;114059;-59
2021/03/10 01:41:21;;;;;;;;;;;;;;;21.08;33.73;101335.69;3116938;27;113886;-60
2021/03/10 01:42:53;;;;;;;;;;;;;;;21.08;33.79;101332.03;3122022;27;113872;-59
2021/03/10 01:44:25;;;;;;;;;;;;;;;21.08;33.96;101334.84;3123785;27;113886;-59
2021/03/10 01:45:56;;;;;;;;;;;;;;;21.06;34.19;101334.31;3123183;27;113745;-59
2021/03/10 01:47:28;;;;;;;;;;;;;;;21.05;34.21;101327.03;3109699;28;113790;-59
2021/03/10 01:48:59;;;;;;;;;;;;;;;21.04;34.18;101325.34;3120185;27;113881;-60
2021/03/10 01:50:31;;;;;;;;;;;;;;;21.02;33.80;101322.84;3121275;27;115514;-60
2021/03/10 01:52:04;;;;;;;;;;;;;;;21.03;34.16;101321.69;3123278;27;115183;-60
2021/03/10 01:53:36;;;;;;;;;;;;;;;21.03;34.14;101320.88;3123184;27;115313;-60
2021/03/10 01:55:08;;;;;;;;;;;;;;;21.02;34.28;101324.81;3123101;27;115153;-60
2021/03/10 01:56:40;;;;;;;;;;;;;;;21.00;34.11;101316.69;3109977;28;115228;-59
2021/03/10 01:58:12;;;;;;;;;;;;;;;20.99;34.02;101314.19;3117377;27;114373;-59
2021/03/10 01:59:43;;;;;;;;;;;;;;;20.98;33.99;101318.16;3122950;27;115055;-59
2021/03/10 02:01:16;;;;;;;;;;;;;;;20.97;34.35;101302.44;3122354;27;114590;-59
2021/03/10 02:02:48;;;;;;;;;;;;;;;20.96;34.30;101311.97;3123286;27;115474;-60
2021/03/10 02:04:20;;;;;;;;;;;;;;;20.92;34.60;101300.53;3120250;27;115348;-60
2021/03/10 02:08:06;;;;;;;;;;;;;;;20.92;34.42;101286.47;3123246;27;115196;-59
2021/03/10 02:09:44;;;;;;;;;;;;;;;20.92;34.38;101285.63;3121061;27;114834;-59
2021/03/10 02:11:22;;;;;;;;;;;;;;;20.90;34.43;101290.72;3125883;27;114245;-59
2021/03/10 02:12:56;;;;;;;;;;;;;;;20.90;34.55;101279.47;3109718;28;114063;-59
2021/03/10 02:14:30;;;;;;;;;;;;;;;20.89;34.58;101270.25;3121438;27;115888;-59
2021/03/10 02:16:05;;;;;;;;;;;;;;;20.89;34.49;101275.03;3124787;27;115800;-58
2021/03/10 02:17:38;;;;;;;;;;;;;;;20.86;34.71;101266.06;3124936;27;115764;-59
2021/03/10 02:19:13;;;;;;;;;;;;;;;20.86;34.63;101266.06;3123345;27;115783;-59
2021/03/10 02:20:46;;;;;;;;;;;;;;;20.85;35.16;101263.53;3125443;27;115710;-59
2021/03/10 02:22:22;;;;;;;;;;;;;;;20.84;34.96;101271.16;3125094;27;115088;-60
2021/03/10 02:23:56;;;;;;;;;;;;;;;20.83;34.98;101260.22;3125747;27;116493;-60
2021/03/10 02:25:37;;;;;;;;;;;;;;;20.79;34.95;101254.38;3125254;27;115781;-60
2021/03/10 02:27:09;;;;;;;;;;;;;;;20.80;35.08;101267.25;3111841;28;115838;-60
2021/03/10 02:28:41;;;;;;;;;;;;;;;20.77;35.43;101253.81;3118757;27;115743;-60
2021/03/10 02:30:14;;;;;;;;;;;;;;;20.76;35.23;101249.34;3125166;27;116245;-60
2021/03/10 02:31:47;;;;;;;;;;;;;;;20.77;35.61;101250.19;3125502;27;115847;-60
2021/03/10 02:33:21;;;;;;;;;;;;;;;20.76;35.32;101252.16;3113603;28;116385;-59
2021/03/10 02:34:53;;;;;;;;;;;;;;;20.74;35.30;101260.06;3107745;28;114054;-60
2021/03/10 02:36:25;;;;;;;;;;;;;;;20.74;35.44;101248.81;3119907;27;113822;-60
2021/03/10 02:37:58;;;;;;;;;;;;;;;20.72;35.42;101242.66;3124465;27;114060;-60
2021/03/10 02:39:32;;;;;;;;;;;;;;;20.72;35.61;101244.63;3124826;27;113934;-60
2021/03/10 02:41:04;;;;;;;;;;;;;;;20.72;35.49;101244.63;3124791;27;113805;-60
2021/03/10 02:42:36;;;;;;;;;;;;;;;20.69;35.74;101248.88;3125072;27;113733;-60
2021/03/10 02:44:08;;;;;;;;;;;;;;;20.70;35.77;101241.31;3109102;28;113926;-61
2021/03/10 02:45:40;;;;;;;;;;;;;;;20.68;35.46;101238.78;3106092;28;113779;-60
2021/03/10 02:47:12;;;;;;;;;;;;;;;20.67;35.67;101234.31;3108050;28;113848;-60
2021/03/10 02:48:45;;;;;;;;;;;;;;;20.66;35.71;101232.66;3121491;27;113712;-60
2021/03/10 02:50:19;;;;;;;;;;;;;;;20.65;36.00;101228.19;3124736;27;114073;-60
2021/03/10 02:51:50;;;;;;;;;;;;;;;20.63;35.97;101223.97;3109767;28;114214;-60
2021/03/10 02:53:22;;;;;;;;;;;;;;;20.63;36.14;101227.63;3119376;27;114112;-61
2021/03/10 02:54:53;;;;;;;;;;;;;;;20.62;36.36;101227.94;3124892;27;114411;-60
2021/03/10 02:56:25;;;;;;;;;;;;;;;20.62;36.22;101237.22;3128988;27;113602;-61
2021/03/10 02:57:58;;;;;;;;;;;;;;;20.63;36.07;101226.78;3110826;28;115203;-60
2021/03/10 02:59:29;;;;;;;;;;;;;;;20.59;36.13;101220.94;3119349;27;114135;-60
2021/03/10 03:01:01;;;;;;;;;;;;;;;20.58;36.43;101219.28;3111004;28;115274;-61
2021/03/10 03:02:33;;;;;;;;;;;;;;;20.58;36.36;101219.28;3094591;28;115129;-60
2021/03/10 03:04:05;;;;;;;;;;;;;;;20.58;36.24;101216.47;3116563;27;115235;-60
2021/03/10 03:05:36;;;;;;;;;;;;;;;20.55;36.01;101205.84;3124994;27;115128;-61
2021/03/10 03:07:08;;;;;;;;;;;;;;;20.53;36.26;101210.94;3111307;28;115061;-60
2021/03/10 03:08:39;;;;;;;;;;;;;;;20.54;36.17;101204.19;3121038;27;115150;-60
2021/03/10 03:10:15;;;;;;;;;;;;;;;20.54;36.30;101201.38;3111555;28;115197;-60
2021/03/10 03:11:46;;;;;;;;;;;;;;;20.53;36.30;101201.69;3104047;28;115467;-60
2021/03/10 03:13:20;;;;;;;;;;;;;;;20.51;36.35;101201.97;3117418;27;115931;-59
2021/03/10 03:14:51;;;;;;;;;;;;;;;20.50;36.21;101203.13;3122314;27;114178;-59
2021/03/10 03:16:24;;;;;;;;;;;;;;;20.48;36.16;101202.59;3110642;28;115211;-59
2021/03/10 03:17:56;;;;;;;;;;;;;;;20.49;36.41;101192.22;3124365;27;115132;-60
2021/03/10 03:19:29;;;;;;;;;;;;;;;20.47;36.19;101200.09;3109394;28;115098;-60
2021/03/10 03:21:00;;;;;;;;;;;;;;;20.45;36.38;101191.13;3119944;27;114583;-59
2021/03/10 03:22:33;;;;;;;;;;;;;;;20.45;36.53;101191.94;3111033;28;115848;-60
2021/03/10 03:24:05;;;;;;;;;;;;;;;20.44;36.46;101176.28;3118866;27;114743;-59
2021/03/10 03:25:38;;;;;;;;;;;;;;;20.44;36.24;101181.88;3109539;28;115907;-60
2021/03/10 03:27:10;;;;;;;;;;;;;;;20.41;36.65;101180.50;3106269;28;116302;-60
2021/03/10 03:28:43;;;;;;;;;;;;;;;20.42;36.34;101184.16;3115441;27;114622;-60
2021/03/10 03:30:16;;;;;;;;;;;;;;;20.41;36.58;101185.28;3124077;27;115732;-60
2021/03/10 03:31:48;;;;;;;;;;;;;;;20.40;36.65;101176.03;3111092;28;115742;-60
2021/03/10 03:33:22;;;;;;;;;;;;;;;20.39;36.89;101177.19;3118987;27;116281;-59
2021/03/10 03:34:55;;;;;;;;;;;;;;;20.36;37.02;101174.13;3108600;28;115790;-60
2021/03/10 03:36:45;;;;;;;;;;;;;;;20.36;36.95;101171.31;3121149;27;115707;-60
2021/03/10 03:38:17;;;;;;;;;;;;;;;20.34;36.96;101162.38;3124446;27;115947;-60
2021/03/10 03:39:49;;;;;;;;;;;;;;;20.33;36.98;101178.38;3126933;27;115763;-60
2021/03/10 03:41:21;;;;;;;;;;;;;;;20.30;36.99;101170.56;3119103;27;114113;-60
2021/03/10 03:42:53;;;;;;;;;;;;;;;20.30;36.82;101173.38;3110121;28;113895;-60
2021/03/10 03:44:25;;;;;;;;;;;;;;;20.28;37.24;101170.00;3105387;28;113978;-59
2021/03/10 03:45:57;;;;;;;;;;;;;;;20.25;37.17;101173.41;3109232;28;113778;-60
2021/03/10 03:47:29;;;;;;;;;;;;;;;20.26;37.08;101171.44;3110407;27;115131;-60
2021/03/10 03:49:01;;;;;;;;;;;;;;;20.26;36.97;101182.66;3111404;28;113799;-60
2021/03/10 03:50:33;;;;;;;;;;;;;;;20.23;37.25;101174.84;3109884;28;113778;-60
2021/03/10 03:52:05;;;;;;;;;;;;;;;20.24;36.74;101170.91;3106760;28;113911;-60
2021/03/10 03:53:37;;;;;;;;;;;;;;;20.24;36.90;101170.91;3101306;28;113993;-59
2021/03/10 03:55:09;;;;;;;;;;;;;;;20.22;36.90;101181.56;3105823;28;114106;-59
2021/03/10 03:56:40;;;;;;;;;;;;;;;20.19;37.29;101174.59;3111201;27;113919;-59
2021/03/10 03:58:11;;;;;;;;;;;;;;;20.19;37.27;101170.97;3111810;28;114069;-60
2021/03/10 03:59:42;;;;;;;;;;;;;;;20.17;36.95;101167.63;3110316;27;113819;-60
2021/03/10 04:01:15;;;;;;;;;;;;;;;20.14;37.08;101160.63;3115119;27;113983;-59
2021/03/10 04:02:47;;;;;;;;;;;;;;;20.15;37.16;101165.13;3109834;27;114131;-60
2021/03/10 04:04:19;;;;;;;;;;;;;;;20.13;37.04;101160.94;3110798;28;116042;-60
2021/03/10 04:05:52;;;;;;;;;;;;;;;20.13;36.74;101156.16;3110210;27;115789;-60
2021/03/10 04:07:24;;;;;;;;;;;;;;;20.11;36.79;101154.81;3111735;28;115089;-60
2021/03/10 04:08:55;;;;;;;;;;;;;;;20.10;36.90;101153.13;3106306;28;114842;-59
2021/03/10 04:10:30;;;;;;;;;;;;;;;20.09;37.14;101149.47;3110700;28;115159;-60
2021/03/10 04:12:17;;;;;;;;;;;;;;;20.07;36.83;101134.94;3084570;28;114478;-60
2021/03/10 04:13:49;;;;;;;;;;;;;;;20.06;36.88;101132.44;3087381;27;115284;-60
2021/03/10 04:15:24;;;;;;;;;;;;;;;20.09;36.81;101131.81;3109344;28;115213;-60
2021/03/10 04:16:56;;;;;;;;;;;;;;;20.05;37.00;101140.00;3110596;28;114494;-60
2021/03/10 04:18:27;;;;;;;;;;;;;;;20.04;37.02;101132.72;3108715;27;114131;-60
2021/03/10 04:19:58;;;;;;;;;;;;;;;20.03;36.99;101141.44;3111603;28;115224;-59
2021/03/10 04:21:30;;;;;;;;;;;;;;;20.03;36.93;101144.25;3111478;28;115681;-59
2021/03/10 04:23:01;;;;;;;;;;;;;;;19.99;37.00;101142.03;3111262;28;115254;-59
2021/03/10 04:24:33;;;;;;;;;;;;;;;19.98;37.00;101140.38;3110110;28;116398;-60
2021/03/10 04:26:04;;;;;;;;;;;;;;;19.98;36.94;101143.19;3108516;28;115977;-59
2021/03/10 04:27:35;;;;;;;;;;;;;;;19.98;37.07;101146.00;3111218;28;115727;-59
2021/03/10 04:29:08;;;;;;;;;;;;;;;19.98;37.04;101147.97;3106739;28;114694;-59
2021/03/10 04:30:40;;;;;;;;;;;;;;;19.96;37.14;101137.03;3111348;28;115755;-59
2021/03/10 04:32:11;;;;;;;;;;;;;;;19.96;37.11;101134.22;3111628;28;115784;-59
2021/03/10 04:36:20;;;;;;;;;;;;;;;19.94;37.23;101132.88;3109680;28;113961;-59
2021/03/10 04:37:52;;;;;;;;;;;;;;;19.92;37.22;101129.53;3110963;28;116138;-59
2021/03/10 04:39:23;;;;;;;;;;;;;;;19.90;37.50;101135.41;3108036;28;115909;-60
2021/03/10 04:40:54;;;;;;;;;;;;;;;19.92;37.27;101129.53;3110414;28;115852;-59
2021/03/10 04:42:26;;;;;;;;;;;;;;;19.90;37.54;101128.97;3111521;27;115748;-59
2021/03/10 04:43:58;;;;;;;;;;;;;;;19.90;37.35;101132.63;3123780;27;116081;-59
2021/03/10 04:45:29;;;;;;;;;;;;;;;19.87;37.50;101119.19;3098196;28;116749;-59
2021/03/10 04:47:00;;;;;;;;;;;;;;;19.87;37.40;101135.19;3118951;27;116229;-60
2021/03/10 04:48:33;;;;;;;;;;;;;;;19.85;37.42;101118.66;3123855;27;113923;-60
2021/03/10 04:50:05;;;;;;;;;;;;;;;19.85;37.41;101118.66;3110220;28;113769;-60
2021/03/10 04:51:37;;;;;;;;;;;;;;;19.86;37.49;101125.94;3119454;27;113855;-59
2021/03/10 04:53:08;;;;;;;;;;;;;;;19.84;37.75;101125.41;3122800;27;113776;-58
2021/03/10 04:54:39;;;;;;;;;;;;;;;19.84;37.47;101102.16;3123552;27;113843;-59
2021/03/10 04:56:12;;;;;;;;;;;;;;;19.84;37.73;101110.56;3120742;27;114479;-59
2021/03/10 04:57:44;;;;;;;;;;;;;;;19.85;38.05;101101.03;3108275;28;113830;-61
2021/03/10 04:59:16;;;;;;;;;;;;;;;19.82;38.29;101105.25;3119106;27;114223;-60
2021/03/10 05:00:48;;;;;;;;;;;;;;;19.82;38.15;101108.06;3123865;27;114036;-59
2021/03/10 05:02:21;;;;;;;;;;;;;;;19.82;38.01;101101.59;3121292;27;113909;-60
2021/03/10 05:05:27;;;;;;;;;;;;;;;19.80;38.17;101090.72;3117799;27;113784;-60
2021/03/10 05:06:58;;;;;;;;;;;;;;;19.79;38.24;101100.25;3123417;27;114271;-59
2021/03/10 05:08:30;;;;;;;;;;;;;;;19.80;37.88;101087.06;3127683;27;113710;-60
2021/03/10 05:10:02;;;;;;;;;;;;;;;19.85;38.37;101090.63;3123351;27;115633;-60
2021/03/10 05:11:34;;;;;;;;;;;;;;;19.88;37.93;101090.03;3109415;28;115394;-60
2021/03/10 05:13:05;;;;;;;;;;;;;;;19.91;38.38;101091.38;3105248;28;115304;-61
2021/03/10 05:14:36;;;;;;;;;;;;;;;19.92;38.20;101088.28;3117578;27;115481;-60
2021/03/10 05:16:08;;;;;;;;;;;;;;;19.92;38.41;101084.66;3123472;27;115992;-60
2021/03/10 05:17:40;;;;;;;;;;;;;;;19.92;38.58;101088.28;3122691;27;115237;-60
2021/03/10 05:19:11;;;;;;;;;;;;;;;19.94;38.94;101086.00;3123066;27;115267;-61
2021/03/10 05:20:45;;;;;;;;;;;;;;;19.93;38.70;101078.75;3123624;27;115293;-59
2021/03/10 05:22:16;;;;;;;;;;;;;;;19.93;38.63;101073.16;3123147;27;115333;-60
2021/03/10 05:23:47;;;;;;;;;;;;;;;19.94;38.43;101073.97;3123744;27;115021;-60
2021/03/10 05:25:19;;;;;;;;;;;;;;;19.95;38.18;101061.59;3122909;27;115207;-59
2021/03/10 05:26:50;;;;;;;;;;;;;;;19.98;38.25;101064.66;3121594;27;114434;-60
2021/03/10 05:28:21;;;;;;;;;;;;;;;19.98;38.36;101056.25;3120754;27;115140;-59
2021/03/10 05:29:54;;;;;;;;;;;;;;;19.99;38.01;101065.47;3111910;28;115573;-60
2021/03/10 05:31:25;;;;;;;;;;;;;;;20.02;38.45;101067.69;3116698;27;115816;-60
2021/03/10 05:32:57;;;;;;;;;;;;;;;20.05;38.89;101069.03;3123213;27;115740;-60
2021/03/10 05:34:28;;;;;;;;;;;;;;;20.06;38.79;101068.75;3121908;27;116632;-60
2021/03/10 05:36:00;;;;;;;;;;;;;;;20.08;38.99;101060.03;3120857;27;115777;-59
2021/03/10 05:37:32;;;;;;;;;;;;;;;20.13;38.95;101065.56;3109451;28;115577;-60
2021/03/10 05:39:04;;;;;;;;;;;;;;;20.16;39.31;101068.63;3103875;28;116164;-60
2021/03/10 05:40:35;;;;;;;;;;;;;;;20.19;39.32;101072.78;3118332;27;116562;-59
2021/03/10 05:42:07;;;;;;;;;;;;;;;20.21;39.19;101057.31;3107039;28;115749;-61
2021/03/10 05:43:39;;;;;;;;;;;;;;;20.25;39.46;101063.16;3110057;28;115837;-60
2021/03/10 05:45:12;;;;;;;;;;;;;;;20.30;39.19;101060.31;3108939;28;115859;-59
2021/03/10 05:46:43;;;;;;;;;;;;;;;20.34;38.68;101056.59;3106523;27;115748;-59
2021/03/10 05:48:15;;;;;;;;;;;;;;;20.39;38.39;101050.06;3109745;28;115235;-59
2021/03/10 05:49:47;;;;;;;;;;;;;;;20.43;38.24;101045.50;3109049;28;114617;-60
2021/03/10 05:51:19;;;;;;;;;;;;;;;20.48;38.63;101050.19;3113158;28;115816;-60
2021/03/10 05:52:52;;;;;;;;;;;;;;;20.52;38.28;101048.44;3098472;28;114224;-60
2021/03/10 05:54:25;;;;;;;;;;;;;;;20.57;37.95;101046.38;3106711;28;114674;-59
2021/03/10 05:56:00;;;;;;;;;;;;;;;20.63;38.14;101047.09;3109491;28;113994;-60
2021/03/10 05:57:33;;;;;;;;;;;;;;;20.67;37.99;101037.78;3111411;28;113808;-59
2021/03/10 05:59:04;;;;;;;;;;;;;;;20.71;37.80;101033.22;3112911;28;113843;-60
2021/03/10 06:00:41;;;;;;;;;;;;;;;20.75;37.93;101034.28;3112915;28;113833;-60
2021/03/10 06:02:13;;;;;;;;;;;;;;;20.80;37.78;101033.34;3109259;28;113685;-61
2021/03/10 06:03:51;;;;;;;;;;;;;;;20.84;37.53;101031.59;3108347;28;113965;-60
2021/03/10 06:05:23;;;;;;;;;;;;;;;20.87;37.15;101025.34;3108709;28;114117;-59
2021/03/10 06:06:54;;;;;;;;;;;;;;;20.91;37.13;101020.78;3110426;27;113792;-60
2021/03/10 06:08:39;;;;;;;;;;;;;;;20.97;37.09;101019.56;3108056;28;113745;-59
2021/03/10 06:10:11;;;;;;;;;;;;;;;21.00;36.95;101013.31;3113419;28;113713;-60
2021/03/10 06:11:45;;;;;;;;;;;;;;;21.05;37.16;101023.59;3113589;27;113844;-60
2021/03/10 06:13:20;;;;;;;;;;;;;;;21.09;37.16;101014.25;3113485;27;113775;-60
2021/03/10 06:14:55;;;;;;;;;;;;;;;21.14;37.29;101011.38;3114294;28;113741;-60
2021/03/10 06:16:27;;;;;;;;;;;;;;;21.16;36.85;101006.28;3113367;27;115119;-60
2021/03/10 06:17:58;;;;;;;;;;;;;;;21.20;36.73;101006.50;3113143;28;115244;-60
2021/03/10 06:19:40;;;;;;;;;;;;;;;21.23;36.78;101012.31;3110291;27;115412;-60
2021/03/10 06:21:13;;;;;;;;;;;;;;;21.28;36.76;101005.75;3109385;28;115335;-60
2021/03/10 06:22:44;;;;;;;;;;;;;;;21.32;36.78;100997.53;3112787;28;115560;-61
2021/03/10 06:24:18;;;;;;;;;;;;;;;21.35;36.49;100994.91;3109169;28;115632;-61
2021/03/10 06:25:49;;;;;;;;;;;;;;;21.39;36.49;100979.13;3100761;28;115239;-61
2021/03/10 06:27:22;;;;;;;;;;;;;;;21.42;36.29;100988.91;3103121;28;115274;-60
2021/03/10 06:28:54;;;;;;;;;;;;;;;21.46;36.49;100984.31;3111212;27;115678;-60
2021/03/10 06:30:28;;;;;;;;;;;;;;;21.49;36.50;100992.09;3110211;28;114300;-60
2021/03/10 06:32:00;;;;;;;;;;;;;;;21.53;36.26;100987.53;3108413;28;115245;-60
2021/03/10 06:33:32;;;;;;;;;;;;;;;21.56;36.46;100982.13;3110130;28;115124;-60
2021/03/10 06:35:04;;;;;;;;;;;;;;;21.59;36.57;100977.81;3107550;28;115062;-60
2021/03/10 06:36:39;;;;;;;;;;;;;;;21.62;36.59;100980.84;3108287;28;115325;-60
2021/03/10 06:38:11;;;;;;;;;;;;;;;21.65;36.45;100973.78;3113216;27;115379;-60
2021/03/10 06:39:42;;;;;;;;;;;;;;;21.67;36.12;100966.66;3112205;27;115133;-60
2021/03/10 06:41:14;;;;;;;;;;;;;;;21.71;36.03;100980.94;3102909;27;115196;-60
2021/03/10 06:42:48;;;;;;;;;;;;;;;21.74;36.12;100977.50;3099901;28;115806;-60
2021/03/10 06:44:22;;;;;;;;;;;;;;;21.76;35.89;100954.69;3106345;28;115846;-60
2021/03/10 06:45:53;;;;;;;;;;;;;;;21.79;35.99;100954.06;3107917;27;116092;-60
2021/03/10 06:47:33;;;;;;;;;;;;;;;21.81;35.78;100946.94;3102292;28;115142;-61
2021/03/10 06:49:06;;;;;;;;;;;;;;;21.84;35.98;100937.06;3101337;28;115906;-60
2021/03/10 06:50:37;;;;;;;;;;;;;;;21.87;35.85;100956.09;3103294;28;116407;-60
2021/03/10 06:52:12;;;;;;;;;;;;;;;21.89;35.68;100939.75;3110571;28;114571;-60
2021/03/10 06:53:44;;;;;;;;;;;;;;;21.92;35.88;100939.94;3112060;28;115941;-59
2021/03/10 06:55:16;;;;;;;;;;;;;;;21.94;35.48;100939.66;3111542;28;114943;-59
2021/03/10 06:56:51;;;;;;;;;;;;;;;21.98;35.68;100946.31;3101374;28;116005;-59
2021/03/10 06:58:23;;;;;;;;;;;;;;;22.00;35.53;100953.28;3113668;27;116085;-58
2021/03/10 06:59:55;;;;;;;;;;;;;;;22.02;35.36;100947.34;3103171;28;114563;-59
2021/03/10 07:01:36;;;;;;;;;;;;;;;22.04;35.30;100937.41;3101576;28;113747;-60
2021/03/10 07:03:10;;;;;;;;;;;;;;;22.08;35.26;100931.97;3109211;28;113819;-60
2021/03/10 07:04:44;;;;;;;;;;;;;;;22.09;35.68;100930.81;3106646;27;113663;-60
2021/03/10 07:06:16;;;;;;;;;;;;;;;22.12;35.13;100918.97;3103527;28;114039;-60
2021/03/10 07:07:48;;;;;;;;;;;;;;;22.13;35.26;100926.22;3107794;28;113966;-61
2021/03/10 07:09:24;;;;;;;;;;;;;;;22.17;35.32;100918.78;3107444;28;113754;-60
2021/03/10 07:10:56;;;;;;;;;;;;;;;22.18;35.86;100920.47;3112147;28;113986;-60
2021/03/10 07:12:29;;;;;;;;;;;;;;;22.21;35.45;100924.63;3113848;28;114039;-60
2021/03/10 07:14:00;;;;;;;;;;;;;;;22.24;35.32;100924.81;3103082;28;113731;-59
2021/03/10 07:15:32;;;;;;;;;;;;;;;22.26;35.40;100922.50;3111783;28;114258;-60
2021/03/10 07:17:05;;;;;;;;;;;;;;;22.28;35.30;100916.56;3112371;28;114744;-59
2021/03/10 07:18:37;;;;;;;;;;;;;;;22.30;35.22;100914.28;3112663;27;114279;-61
2021/03/10 07:20:09;;;;;;;;;;;;;;;22.33;34.99;100899.53;3113384;28;113850;-60
2021/03/10 07:21:44;;;;;;;;;;;;;;;22.35;35.20;100905.69;3106104;28;115312;-60
2021/03/10 07:23:17;;;;;;;;;;;;;;;22.36;34.95;100893.25;3112480;28;115194;-61
2021/03/10 07:26:26;;;;;;;;;;;;;;;22.41;34.91;100902.41;3104944;28;115203;-59
2021/03/10 07:28:01;;;;;;;;;;;;;;;22.43;34.88;100897.31;3112314;28;115231;-59
2021/03/10 07:29:34;;;;;;;;;;;;;;;22.45;34.59;100886.53;3111563;28;114262;-60
2021/03/10 07:31:05;;;;;;;;;;;;;;;22.47;34.52;100883.41;3112763;27;114026;-60
2021/03/10 07:32:37;;;;;;;;;;;;;;;22.49;34.66;100893.16;3112197;27;114771;-60
2021/03/10 07:34:10;;;;;;;;;;;;;;;22.51;34.61;100888.06;3111811;28;114409;-60
2021/03/10 07:35:46;;;;;;;;;;;;;;;22.53;34.56;100894.19;3108464;28;115242;-59
2021/03/10 07:37:18;;;;;;;;;;;;;;;22.55;34.50;100894.72;3107552;28;115055;-60
2021/03/10 07:38:49;;;;;;;;;;;;;;;22.57;34.20;100886.78;3111776;28;115652;-59
2021/03/10 07:40:20;;;;;;;;;;;;;;;22.59;34.40;100892.91;3112402;27;115536;-59
2021/03/10 07:41:52;;;;;;;;;;;;;;;22.60;34.23;100888.94;3115635;28;115140;-59
2021/03/10 07:43:27;;;;;;;;;;;;;;;22.63;34.30;100884.63;3121279;27;115301;-59
2021/03/10 07:44:58;;;;;;;;;;;;;;;22.64;34.06;100897.56;3113535;27;115959;-59
2021/03/10 07:46:31;;;;;;;;;;;;;;;22.68;34.62;100900.56;3123862;27;115831;-60
2021/03/10 07:48:03;;;;;;;;;;;;;;;22.72;34.59;100887.50;3101070;28;116027;-60
2021/03/10 07:49:34;;;;;;;;;;;;;;;22.68;34.11;100894.91;3107857;28;115848;-60
2021/03/10 07:51:07;;;;;;;;;;;;;;;22.66;33.69;100900.06;3105943;28;114582;-60
2021/03/10 07:52:48;;;;;;;;;;;;;;;22.57;33.18;100889.59;3110198;28;115039;-60
2021/03/10 07:54:22;;;;;;;;;;;;;;;22.54;32.79;100892.19;3115942;27;116118;-60
2021/03/10 07:55:54;;;;;;;;;;;;;;;22.50;32.78;100877.13;3111283;27;116029;-59
2021/03/10 07:57:25;;;;;;;;;;;;;;;22.55;32.98;100880.63;3111937;27;115891;-59